createdAt,value
2018-12-20T00:02:08.463Z,6.30
2018-12-20T00:04:36.811Z,6.30
2018-12-20T00:07:05.198Z,6.30
2018-12-20T00:09:33.385Z,6.30
2018-12-20T00:12:01.514Z,6.30
2018-12-20T00:14:30.112Z,6.30
2018-12-20T00:20:02.145Z,6.30
2018-12-20T00:22:30.577Z,6.30
2018-12-20T00:24:58.516Z,6.30
2018-12-20T00:27:26.513Z,6.40
2018-12-20T00:29:54.513Z,6.30
2018-12-20T00:32:22.927Z,6.40
2018-12-20T00:34:50.972Z,6.30
2018-12-20T00:37:19.411Z,6.30
2018-12-20T00:39:47.887Z,6.30
2018-12-20T00:42:15.785Z,6.30
2018-12-20T00:44:43.824Z,6.20
2018-12-20T00:47:11.899Z,6.20
2018-12-20T00:49:39.998Z,6.20
2018-12-20T00:52:08.079Z,6.20
2018-12-20T00:54:36.560Z,6.20
2018-12-20T00:57:04.590Z,6.20
2018-12-20T00:59:32.475Z,6.20
2018-12-20T01:02:01.960Z,6.20
2018-12-20T01:04:30.015Z,6.20
2018-12-20T01:06:58.126Z,6.20
2018-12-20T01:09:26.575Z,6.20
2018-12-20T01:11:54.648Z,6.20
2018-12-20T01:14:22.799Z,6.50
2018-12-20T01:16:50.790Z,6.20
2018-12-20T01:19:19.283Z,6.20
2018-12-20T01:21:47.476Z,6.20
2018-12-20T01:24:15.847Z,6.20
2018-12-20T01:26:43.924Z,6.20
2018-12-20T01:29:12.153Z,6.20
2018-12-20T01:31:40.371Z,6.20
2018-12-20T01:34:08.534Z,6.20
2018-12-20T01:36:36.857Z,6.20
2018-12-20T01:39:06.324Z,6.10
2018-12-20T01:41:34.834Z,6.10
2018-12-20T01:44:03.149Z,6.20
2018-12-20T01:46:31.313Z,6.20
2018-12-20T01:48:59.667Z,6.20
2018-12-20T01:51:28.310Z,6.20
2018-12-20T01:53:56.557Z,6.20
2018-12-20T01:56:24.565Z,6.20
2018-12-20T01:58:52.698Z,6.20
2018-12-20T02:01:20.964Z,6.20
2018-12-20T02:03:49.051Z,6.20
2018-12-20T02:06:17.668Z,6.20
2018-12-20T02:08:45.809Z,6.20
2018-12-20T02:11:13.959Z,6.20
2018-12-20T02:13:42.739Z,6.20
2018-12-20T02:16:10.967Z,6.20
2018-12-20T02:18:38.984Z,6.20
2018-12-20T02:21:07.584Z,6.20
2018-12-20T02:23:35.934Z,6.10
2018-12-20T02:26:04.032Z,6.00
2018-12-20T02:28:32.701Z,6.00
2018-12-20T02:31:00.791Z,5.90
2018-12-20T02:33:28.671Z,5.90
2018-12-20T02:35:56.859Z,6.00
2018-12-20T02:38:25.620Z,5.90
2018-12-20T02:40:53.817Z,5.90
2018-12-20T02:43:22.200Z,5.90
2018-12-20T02:45:50.904Z,5.90
2018-12-20T02:48:19.082Z,5.90
2018-12-20T02:50:47.202Z,5.90
2018-12-20T02:53:15.495Z,5.90
2018-12-20T02:55:43.577Z,5.90
2018-12-20T02:58:11.441Z,5.80
2018-12-20T03:00:39.894Z,5.80
2018-12-20T03:03:08.095Z,5.80
2018-12-20T03:05:36.254Z,5.70
2018-12-20T03:08:04.300Z,5.60
2018-12-20T03:10:32.500Z,5.60
2018-12-20T03:13:00.711Z,5.50
2018-12-20T03:15:29.170Z,5.40
2018-12-20T03:17:57.409Z,5.40
2018-12-20T03:20:25.408Z,5.30
2018-12-20T03:22:53.737Z,5.30
2018-12-20T03:25:22.182Z,5.20
2018-12-20T03:27:50.379Z,5.20
2018-12-20T03:30:18.647Z,5.20
2018-12-20T03:32:46.763Z,5.20
2018-12-20T03:35:14.926Z,5.20
2018-12-20T03:37:43.447Z,5.10
2018-12-20T03:40:11.626Z,5.10
2018-12-20T03:42:39.717Z,5.10
2018-12-20T03:45:07.861Z,5.00
2018-12-20T03:47:36.110Z,5.00
2018-12-20T03:50:05.102Z,5.00
2018-12-20T03:52:33.183Z,5.00
2018-12-20T03:55:01.308Z,5.00
2018-12-20T03:57:29.634Z,4.90
2018-12-20T03:59:58.089Z,5.00
2018-12-20T04:02:25.971Z,5.00
2018-12-20T04:04:54.021Z,5.10
2018-12-20T04:07:22.629Z,5.20
2018-12-20T04:09:51.033Z,5.30
2018-12-20T04:12:19.292Z,5.40
2018-12-20T04:14:47.144Z,5.40
2018-12-20T04:17:15.195Z,5.50
2018-12-20T04:19:43.254Z,5.50
2018-12-20T04:22:11.523Z,5.50
2018-12-20T04:24:39.408Z,5.50
2018-12-20T04:27:07.589Z,5.40
2018-12-20T04:29:35.603Z,5.50
2018-12-20T04:32:03.640Z,5.40
2018-12-20T04:34:31.708Z,5.40
2018-12-20T04:37:00.400Z,5.40
2018-12-20T04:39:28.649Z,5.50
2018-12-20T04:41:56.718Z,5.50
2018-12-20T04:44:24.846Z,5.50
2018-12-20T04:46:53.075Z,5.60
2018-12-20T04:49:21.374Z,5.60
2018-12-20T04:51:49.991Z,5.60
2018-12-20T04:54:18.108Z,5.60
2018-12-20T04:56:46.547Z,5.70
2018-12-20T04:59:14.656Z,5.70
2018-12-20T05:01:42.756Z,5.70
2018-12-20T05:04:11.020Z,5.70
2018-12-20T05:06:39.781Z,5.70
2018-12-20T05:09:08.039Z,5.70
2018-12-20T05:11:36.183Z,5.70
2018-12-20T05:14:04.998Z,5.70
2018-12-20T05:16:33.161Z,5.70
2018-12-20T05:19:01.281Z,5.70
2018-12-20T05:21:29.370Z,5.70
2018-12-20T05:23:57.933Z,5.60
2018-12-20T05:26:26.159Z,5.60
2018-12-20T05:28:54.176Z,5.60
2018-12-20T05:31:22.607Z,5.60
2018-12-20T05:33:50.726Z,5.70
2018-12-20T05:36:18.677Z,5.70
2018-12-20T05:38:46.661Z,5.70
2018-12-20T05:41:14.740Z,5.70
2018-12-20T05:43:43.363Z,5.80
2018-12-20T05:46:11.411Z,5.80
2018-12-20T05:48:39.380Z,5.80
2018-12-20T05:51:07.300Z,5.90
2018-12-20T05:53:35.356Z,5.90
2018-12-20T05:56:03.579Z,5.90
2018-12-20T05:58:31.905Z,5.80
2018-12-20T06:01:00.058Z,5.80
2018-12-20T06:03:28.272Z,5.70
2018-12-20T06:05:56.302Z,5.70
2018-12-20T06:08:24.587Z,5.70
2018-12-20T06:10:52.567Z,5.60
2018-12-20T06:13:21.108Z,5.60
2018-12-20T06:15:49.346Z,5.60
2018-12-20T06:18:17.288Z,5.60
2018-12-20T06:20:45.491Z,5.60
2018-12-20T06:23:14.063Z,5.60
2018-12-20T06:25:42.143Z,5.60
2018-12-20T06:28:10.020Z,5.60
2018-12-20T06:30:38.022Z,5.60
2018-12-20T06:33:06.282Z,5.60
2018-12-20T06:35:34.300Z,5.70
2018-12-20T06:38:02.325Z,5.70
2018-12-20T06:40:31.221Z,5.70
2018-12-20T06:42:59.280Z,5.70
2018-12-20T06:45:27.225Z,5.60
2018-12-20T06:47:55.584Z,5.60
2018-12-20T06:50:23.455Z,5.60
2018-12-20T06:52:53.238Z,5.60
2018-12-20T06:55:21.854Z,5.60
2018-12-20T06:57:49.799Z,5.60
2018-12-20T07:00:17.747Z,5.60
2018-12-20T07:02:45.916Z,5.60
2018-12-20T07:05:13.977Z,5.60
2018-12-20T07:07:42.057Z,5.60
2018-12-20T07:10:10.004Z,5.60
2018-12-20T07:12:38.070Z,5.60
2018-12-20T07:15:08.375Z,5.60
2018-12-20T07:17:36.522Z,5.60
2018-12-20T07:20:05.668Z,5.60
2018-12-20T07:22:33.905Z,5.60
2018-12-20T07:25:01.787Z,5.60
2018-12-20T07:27:30.015Z,5.50
2018-12-20T07:29:59.009Z,5.50
2018-12-20T07:32:26.982Z,5.50
2018-12-20T07:34:55.416Z,5.50
2018-12-20T07:37:24.307Z,5.50
2018-12-20T07:39:54.843Z,5.40
2018-12-20T07:42:22.874Z,5.40
2018-12-20T07:44:50.940Z,5.40
2018-12-20T07:47:20.328Z,5.50
2018-12-20T07:49:56.678Z,5.40
2018-12-20T07:52:26.431Z,5.40
2018-12-20T07:54:54.492Z,5.50
2018-12-20T07:57:22.557Z,5.50
2018-12-20T07:59:50.400Z,5.50
2018-12-20T08:02:18.392Z,5.50
2018-12-20T08:04:46.619Z,5.50
2018-12-20T08:07:14.503Z,5.50
2018-12-20T08:09:42.481Z,5.60
2018-12-20T08:12:36.494Z,5.60
2018-12-20T08:15:07.833Z,5.60
2018-12-20T08:17:36.103Z,5.60
2018-12-20T08:20:05.118Z,5.60
2018-12-20T08:22:32.974Z,5.60
2018-12-20T08:25:01.236Z,5.60
2018-12-20T08:27:29.096Z,5.60
2018-12-20T08:29:57.023Z,5.60
2018-12-20T08:32:25.606Z,5.70
2018-12-20T08:34:53.744Z,5.70
2018-12-20T08:37:21.826Z,5.70
2018-12-20T08:39:49.716Z,5.80
2018-12-20T08:42:17.822Z,5.80
2018-12-20T08:44:45.808Z,5.80
2018-12-20T08:47:13.895Z,5.90
2018-12-20T08:49:41.796Z,5.90
2018-12-20T08:52:11.558Z,5.90
2018-12-20T08:54:39.781Z,6.00
2018-12-20T08:57:07.643Z,6.00
2018-12-20T08:59:35.496Z,6.00
2018-12-20T09:02:04.836Z,6.00
2018-12-20T09:04:32.859Z,6.00
2018-12-20T09:07:00.711Z,6.10
2018-12-20T09:09:29.091Z,6.10
2018-12-20T09:11:57.755Z,6.10
2018-12-20T09:14:25.714Z,6.00
2018-12-20T09:16:53.631Z,6.10
2018-12-20T09:19:22.425Z,6.00
2018-12-20T09:21:50.646Z,6.10
2018-12-20T09:24:18.474Z,6.10
2018-12-20T09:26:46.356Z,6.10
2018-12-20T09:29:14.488Z,6.20
2018-12-20T09:31:42.445Z,6.20
2018-12-20T09:34:10.319Z,6.30
2018-12-20T09:36:38.384Z,6.30
2018-12-20T09:39:07.229Z,6.40
2018-12-20T09:41:35.095Z,6.40
2018-12-20T09:44:03.185Z,6.50
2018-12-20T09:46:31.791Z,6.50
2018-12-20T09:48:59.612Z,6.60
2018-12-20T09:51:27.663Z,6.70
2018-12-20T09:53:55.560Z,6.70
2018-12-20T09:56:23.639Z,6.80
2018-12-20T09:58:51.480Z,6.80
2018-12-20T10:01:19.539Z,6.90
2018-12-20T10:03:47.755Z,6.90
2018-12-20T10:06:15.587Z,6.90
2018-12-20T10:08:43.598Z,7.00
2018-12-20T10:11:11.596Z,7.00
2018-12-20T10:13:40.682Z,7.10
2018-12-20T10:16:08.928Z,7.10
2018-12-20T10:18:36.863Z,7.00
2018-12-20T10:21:04.788Z,7.00
2018-12-20T10:23:33.065Z,7.10
2018-12-20T10:26:00.932Z,7.10
2018-12-20T10:28:29.108Z,7.00
2018-12-20T10:30:57.097Z,7.00
2018-12-20T10:33:24.965Z,7.00
2018-12-20T10:35:53.082Z,6.90
2018-12-20T10:38:21.199Z,7.00
2018-12-20T10:40:49.060Z,7.00
2018-12-20T10:43:17.080Z,7.20
2018-12-20T10:45:44.934Z,7.30
2018-12-20T10:48:13.116Z,7.30
2018-12-20T10:50:40.996Z,7.50
2018-12-20T10:53:08.911Z,7.60
2018-12-20T10:55:37.338Z,7.70
2018-12-20T10:58:05.281Z,7.80
2018-12-20T11:00:35.333Z,7.90
2018-12-20T11:03:09.428Z,7.90
2018-12-20T11:05:43.036Z,7.80
2018-12-20T11:08:27.824Z,8.00
2018-12-20T11:11:05.265Z,7.90
2018-12-20T11:13:33.132Z,8.00
2018-12-20T11:16:01.559Z,8.00
2018-12-20T11:18:29.511Z,8.10
2018-12-20T11:20:57.571Z,8.20
2018-12-20T11:23:25.528Z,8.20
2018-12-20T11:25:54.345Z,8.10
2018-12-20T11:28:22.759Z,8.00
2018-12-20T11:30:50.673Z,8.00
2018-12-20T11:33:18.738Z,8.10
2018-12-20T11:35:46.748Z,8.00
2018-12-20T11:38:14.620Z,8.00
2018-12-20T11:40:42.719Z,7.90
2018-12-20T11:43:10.568Z,7.70
2018-12-20T11:45:38.487Z,7.70
2018-12-20T11:48:06.603Z,7.70
2018-12-20T11:50:35.254Z,7.60
2018-12-20T11:53:03.175Z,7.60
2018-12-20T11:55:31.293Z,7.60
2018-12-20T11:57:59.960Z,7.60
2018-12-20T12:00:27.868Z,7.50
2018-12-20T12:02:55.705Z,7.60
2018-12-20T12:05:23.528Z,7.60
2018-12-20T12:07:52.052Z,7.50
2018-12-20T12:10:19.944Z,7.40
2018-12-20T12:12:47.906Z,7.30
2018-12-20T12:15:15.767Z,7.30
2018-12-20T12:17:43.728Z,7.10
2018-12-20T12:20:11.615Z,7.10
2018-12-20T12:22:39.499Z,7.30
2018-12-20T12:25:07.651Z,7.40
2018-12-20T12:27:36.053Z,7.60
2018-12-20T12:30:05.215Z,7.70
2018-12-20T12:32:33.332Z,7.70
2018-12-20T12:35:01.159Z,7.70
2018-12-20T12:37:29.044Z,7.70
2018-12-20T12:39:57.227Z,7.60
2018-12-20T12:42:25.060Z,7.60
2018-12-20T12:44:53.220Z,7.50
2018-12-20T12:47:23.176Z,7.50
2018-12-20T12:49:51.067Z,7.50
2018-12-20T12:52:19.424Z,7.40
2018-12-20T12:54:47.542Z,7.40
2018-12-20T12:57:16.244Z,7.50
2018-12-20T12:59:45.891Z,7.40
2018-12-20T13:02:14.009Z,7.40
2018-12-20T13:04:45.151Z,7.40
2018-12-20T13:07:13.060Z,7.40
2018-12-20T13:09:40.880Z,7.40
2018-12-20T13:12:09.040Z,7.40
2018-12-20T13:14:36.951Z,7.40
2018-12-20T13:17:04.781Z,7.40
2018-12-20T13:19:32.941Z,7.40
2018-12-20T13:22:01.179Z,7.40
2018-12-20T13:24:29.052Z,7.40
2018-12-20T13:26:57.170Z,7.40
2018-12-20T13:29:25.456Z,7.50
2018-12-20T13:31:53.370Z,7.50
2018-12-20T13:34:21.331Z,7.40
2018-12-20T13:36:49.276Z,7.50
2018-12-20T13:39:17.468Z,7.50
2018-12-20T13:41:45.347Z,7.50
2018-12-20T13:44:13.199Z,7.50
2018-12-20T13:46:41.632Z,7.60
2018-12-20T13:49:09.506Z,7.60
2018-12-20T13:51:37.573Z,7.60
2018-12-20T13:54:05.844Z,7.60
2018-12-20T13:56:33.737Z,7.60
2018-12-20T13:59:03.502Z,7.60
2018-12-20T14:01:32.005Z,7.50
2018-12-20T14:03:59.859Z,7.40
2018-12-20T14:06:27.677Z,7.40
2018-12-20T14:08:55.941Z,7.40
2018-12-20T14:11:23.837Z,7.30
2018-12-20T14:13:51.703Z,7.40
2018-12-20T14:16:20.129Z,7.30
2018-12-20T14:18:47.975Z,7.30
2018-12-20T14:21:16.653Z,7.30
2018-12-20T14:23:44.515Z,7.30
2018-12-20T14:26:12.410Z,7.30
2018-12-20T14:28:42.552Z,7.30
2018-12-20T14:31:11.182Z,7.30
2018-12-20T14:33:39.194Z,7.30
2018-12-20T14:36:07.963Z,7.30
2018-12-20T14:38:35.788Z,7.40
2018-12-20T14:41:03.978Z,7.50
2018-12-20T14:43:31.807Z,7.50
2018-12-20T14:45:59.659Z,7.40
2018-12-20T14:48:29.574Z,7.40
2018-12-20T14:50:57.468Z,7.40
2018-12-20T14:53:25.784Z,7.40
2018-12-20T14:55:53.657Z,7.40
2018-12-20T14:58:21.514Z,7.40
2018-12-20T15:00:49.436Z,7.40
2018-12-20T15:03:17.460Z,7.40
2018-12-20T15:05:45.317Z,7.40
2018-12-20T15:08:13.648Z,7.30
2018-12-20T15:10:41.799Z,7.30
2018-12-20T15:13:09.649Z,7.30
2018-12-20T15:15:37.585Z,7.30
2018-12-20T15:18:05.411Z,7.30
2018-12-20T15:20:40.529Z,7.30
2018-12-20T15:23:03.744Z,7.30
2018-12-20T15:25:32.329Z,7.30
2018-12-20T15:28:00.414Z,7.30
2018-12-20T15:30:28.430Z,7.30
2018-12-20T15:32:56.369Z,7.50
2018-12-20T15:35:24.640Z,7.30
2018-12-20T15:37:52.679Z,7.30
2018-12-20T15:40:20.606Z,7.20
2018-12-20T15:42:48.978Z,7.30
2018-12-20T15:45:17.057Z,7.20
2018-12-20T15:47:45.491Z,7.20
2018-12-20T15:50:13.714Z,7.30
2018-12-20T15:52:41.552Z,7.20
2018-12-20T15:55:09.395Z,7.20
2018-12-20T15:57:37.727Z,7.20
2018-12-20T16:00:08.128Z,7.20
2018-12-20T16:02:35.976Z,7.20
2018-12-20T16:05:05.239Z,7.20
2018-12-20T16:07:33.119Z,7.20
2018-12-20T16:10:01.941Z,7.20
2018-12-20T16:12:31.141Z,7.20
2018-12-20T16:14:59.090Z,7.30
2018-12-20T16:17:27.387Z,7.20
2018-12-20T16:19:58.693Z,7.20
2018-12-20T16:22:26.572Z,7.20
2018-12-20T16:24:54.437Z,7.20
2018-12-20T16:27:23.003Z,7.10
2018-12-20T16:29:51.058Z,7.10
2018-12-20T16:32:19.159Z,7.10
2018-12-20T16:34:46.999Z,7.10
2018-12-20T16:37:15.701Z,7.10
2018-12-20T16:39:43.540Z,7.10
2018-12-20T16:42:11.407Z,7.10
2018-12-20T16:44:39.664Z,7.10
2018-12-20T16:47:07.583Z,7.10
2018-12-20T16:49:35.861Z,7.10
2018-12-20T16:52:04.416Z,7.10
2018-12-20T16:54:32.244Z,7.10
2018-12-20T16:57:00.056Z,7.10
2018-12-20T16:59:28.279Z,7.10
2018-12-20T17:01:56.093Z,7.20
2018-12-20T17:04:23.957Z,7.20
2018-12-20T17:06:52.219Z,7.20
2018-12-20T17:09:21.001Z,7.20
2018-12-20T17:11:49.051Z,7.30
2018-12-20T17:14:16.895Z,7.30
2018-12-20T17:16:44.711Z,7.20
2018-12-20T17:19:12.811Z,7.30
2018-12-20T17:21:40.675Z,7.20
2018-12-20T17:24:08.540Z,7.20
2018-12-20T17:26:36.819Z,7.20
2018-12-20T17:29:04.789Z,7.20
2018-12-20T17:31:32.692Z,7.10
2018-12-20T17:34:02.612Z,7.10
2018-12-20T17:36:30.736Z,7.10
2018-12-20T17:38:58.857Z,7.10
2018-12-20T17:41:26.699Z,7.10
2018-12-20T17:43:54.594Z,7.20
2018-12-20T17:46:22.967Z,7.20
2018-12-20T17:48:51.304Z,7.10
2018-12-20T17:51:19.755Z,7.10
2018-12-20T17:53:47.966Z,7.00
2018-12-20T17:56:15.808Z,7.00
2018-12-20T17:58:43.946Z,6.90
2018-12-20T18:01:15.374Z,6.90
2018-12-20T18:03:43.451Z,6.90
2018-12-20T18:06:11.908Z,6.90
2018-12-20T18:08:39.959Z,6.90
2018-12-20T18:11:07.782Z,6.90
2018-12-20T18:13:36.053Z,6.90
2018-12-20T18:16:04.115Z,6.90
2018-12-20T18:18:32.547Z,6.90
2018-12-20T18:21:00.940Z,6.90
2018-12-20T18:28:11.735Z,6.90
2018-12-20T18:30:39.948Z,7.00
2018-12-20T18:33:07.842Z,7.00
2018-12-20T18:35:36.004Z,7.00
2018-12-20T18:38:07.040Z,7.00
2018-12-20T18:40:34.945Z,7.00
2018-12-20T18:43:04.238Z,7.00
2018-12-20T18:45:32.075Z,7.10
2018-12-20T18:47:59.934Z,7.10
2018-12-20T18:50:27.747Z,7.10
2018-12-20T18:52:56.220Z,7.20
2018-12-20T18:55:24.287Z,7.20
2018-12-20T18:57:52.564Z,7.20
2018-12-20T19:00:20.430Z,7.20
2018-12-20T19:02:48.243Z,7.20
2018-12-20T19:05:16.572Z,7.20
2018-12-20T19:07:44.484Z,7.20
2018-12-20T19:10:12.325Z,7.20
2018-12-20T19:12:40.655Z,7.20
2018-12-20T19:15:08.722Z,7.20
2018-12-20T19:17:36.560Z,7.20
2018-12-20T19:20:06.747Z,7.20
2018-12-20T19:22:34.918Z,7.20
2018-12-20T19:25:03.152Z,7.20
2018-12-20T19:27:31.712Z,7.20
2018-12-20T19:29:59.570Z,7.20
2018-12-20T19:32:27.803Z,7.20
2018-12-20T19:34:55.716Z,7.30
2018-12-20T19:37:23.572Z,7.30
2018-12-20T19:39:54.098Z,7.20
2018-12-20T19:42:22.038Z,7.20
2018-12-20T19:44:49.868Z,7.30
2018-12-20T19:47:18.119Z,7.20
2018-12-20T19:49:46.047Z,7.30
2018-12-20T19:52:14.324Z,7.30
2018-12-20T19:54:47.906Z,7.30
2018-12-20T19:57:12.408Z,7.30
2018-12-20T19:59:40.682Z,7.30
2018-12-20T20:02:08.954Z,7.30
2018-12-20T20:04:36.863Z,7.30
2018-12-20T20:07:04.870Z,7.30
2018-12-20T20:09:33.893Z,7.30
2018-12-20T20:12:02.083Z,7.30
2018-12-20T20:14:30.180Z,7.20
2018-12-20T20:16:58.206Z,7.20
2018-12-20T20:19:26.396Z,7.20
2018-12-20T20:21:54.305Z,7.30
2018-12-20T20:24:22.619Z,7.30
2018-12-20T20:26:50.981Z,7.20
2018-12-20T20:29:18.837Z,7.20
2018-12-20T20:31:46.790Z,7.20
2018-12-20T20:34:15.230Z,7.20
2018-12-20T20:36:43.165Z,7.20
2018-12-20T20:39:11.145Z,7.20
2018-12-20T20:41:39.627Z,7.10
2018-12-20T20:44:07.470Z,7.10
2018-12-20T20:46:35.485Z,7.00
2018-12-20T20:49:03.852Z,7.00
2018-12-20T20:51:33.559Z,7.00
2018-12-20T20:54:25.122Z,6.90
2018-12-20T20:56:53.797Z,6.90
2018-12-20T20:59:23.160Z,6.90
2018-12-20T21:01:59.813Z,6.90
2018-12-20T21:04:28.132Z,6.80
2018-12-20T21:06:57.041Z,6.80
2018-12-20T21:09:28.239Z,6.80
2018-12-20T21:11:56.220Z,6.80
2018-12-20T21:14:24.298Z,6.80
2018-12-20T21:16:52.550Z,6.80
2018-12-20T21:19:20.366Z,6.80
2018-12-20T21:21:48.352Z,6.80
2018-12-20T21:24:16.620Z,6.80
2018-12-20T21:26:44.491Z,6.80
2018-12-20T21:29:12.348Z,6.80
2018-12-20T21:31:40.188Z,6.80
2018-12-20T21:34:08.019Z,6.90
2018-12-20T21:41:04.374Z,6.90
2018-12-20T21:43:32.448Z,6.90
2018-12-20T21:46:00.756Z,6.90
2018-12-20T21:48:28.858Z,6.90
2018-12-20T21:50:57.244Z,6.90
2018-12-20T21:53:25.088Z,6.90
2018-12-20T21:55:52.956Z,6.90
2018-12-20T22:02:48.948Z,6.90
2018-12-20T22:05:16.830Z,6.90
2018-12-20T22:16:40.280Z,6.90
2018-12-20T22:19:08.106Z,6.90
2018-12-20T22:21:36.173Z,6.90
2018-12-20T22:28:32.943Z,6.80
2018-12-20T22:31:01.016Z,6.90
2018-12-20T22:33:29.088Z,6.90
2018-12-20T22:35:57.008Z,6.90
2018-12-20T22:38:58.175Z,6.90
2018-12-20T22:41:26.062Z,6.90
2018-12-20T22:43:54.339Z,6.90
2018-12-20T22:46:23.631Z,6.90
2018-12-20T22:48:53.351Z,6.90
2018-12-20T22:51:22.371Z,6.90
2018-12-20T22:53:50.728Z,6.90
2018-12-20T22:56:19.162Z,6.90
2018-12-20T22:58:48.047Z,6.90
2018-12-20T23:01:16.597Z,6.90
2018-12-20T23:03:45.202Z,6.90
2018-12-20T23:06:13.227Z,6.80
2018-12-20T23:08:41.311Z,6.90
2018-12-20T23:11:10.660Z,6.90
2018-12-20T23:13:38.653Z,6.90
2018-12-20T23:16:07.753Z,6.90
2018-12-20T23:18:38.390Z,7.00
2018-12-20T23:21:07.466Z,6.90
2018-12-20T23:23:36.275Z,7.00
2018-12-20T23:26:04.800Z,7.00
2018-12-20T23:28:32.784Z,6.90
2018-12-20T23:31:00.791Z,7.00
2018-12-20T23:33:28.893Z,7.00
2018-12-20T23:35:56.995Z,7.00
2018-12-20T23:38:24.915Z,7.00
2018-12-20T23:40:52.869Z,7.00
2018-12-20T23:43:20.763Z,7.00
2018-12-20T23:45:48.827Z,7.00
2018-12-20T23:48:16.920Z,7.00
2018-12-20T23:50:45.132Z,6.90
2018-12-20T23:53:13.096Z,6.90
2018-12-20T23:55:41.318Z,6.90
2018-12-20T23:58:09.364Z,6.90
